createdAt,value
2023-02-21T00:00:08.356Z,9.06
2023-02-21T00:03:02.529Z,8.95
2023-02-21T00:05:49.059Z,8.95
2023-02-21T00:08:35.564Z,8.91
2023-02-21T00:11:23.874Z,8.88
2023-02-21T00:14:10.554Z,8.84
2023-02-21T00:16:58.392Z,8.82
2023-02-21T00:19:45.052Z,8.90
2023-02-21T00:22:31.705Z,8.84
2023-02-21T00:25:18.212Z,8.71
2023-02-21T00:28:04.742Z,8.84
2023-02-21T00:30:51.253Z,8.77
2023-02-21T00:33:39.231Z,8.83
2023-02-21T00:36:26.913Z,8.61
2023-02-21T00:39:13.722Z,8.55
2023-02-21T00:42:00.108Z,8.62
2023-02-21T00:44:46.537Z,8.50
2023-02-21T00:47:33.043Z,8.58
2023-02-21T00:50:20.715Z,8.50
2023-02-21T00:53:07.768Z,8.50
2023-02-21T00:55:54.382Z,8.55
2023-02-21T00:58:41.358Z,8.55
2023-02-21T01:01:28.395Z,8.54
2023-02-21T01:04:17.284Z,8.55
2023-02-21T01:07:10.200Z,8.60
2023-02-21T01:09:56.578Z,8.56
2023-02-21T01:12:42.960Z,8.53
2023-02-21T01:15:29.983Z,8.53
2023-02-21T01:18:17.783Z,8.50
2023-02-21T01:21:04.267Z,8.60
2023-02-21T01:23:54.754Z,8.58
2023-02-21T01:26:41.267Z,8.55
2023-02-21T01:29:27.693Z,8.50
2023-02-21T01:32:14.182Z,8.50
2023-02-21T01:35:00.969Z,8.49
2023-02-21T01:37:47.392Z,8.49
2023-02-21T01:40:37.766Z,8.57
2023-02-21T01:43:32.625Z,8.52
2023-02-21T01:46:19.162Z,8.48
2023-02-21T01:49:08.186Z,8.52
2023-02-21T01:51:58.422Z,8.52
2023-02-21T01:54:49.010Z,8.49
2023-02-21T01:57:39.019Z,8.51
2023-02-21T02:00:29.821Z,8.54
2023-02-21T02:03:18.189Z,8.58
2023-02-21T02:06:08.038Z,8.52
2023-02-21T02:08:56.027Z,8.60
2023-02-21T02:12:13.149Z,8.60
2023-02-21T02:14:56.535Z,8.63
2023-02-21T02:17:35.514Z,8.56
2023-02-21T02:20:39.861Z,8.52
2023-02-21T02:23:35.682Z,8.57
2023-02-21T02:26:38.727Z,8.58
2023-02-21T02:29:29.092Z,8.60
2023-02-21T02:32:21.456Z,8.52
2023-02-21T02:35:04.117Z,8.53
2023-02-21T02:37:37.870Z,8.55
2023-02-21T02:40:17.602Z,8.53
2023-02-21T02:42:56.465Z,8.52
2023-02-21T02:45:31.050Z,8.41
2023-02-21T02:48:05.294Z,8.50
2023-02-21T02:50:37.721Z,8.38
2023-02-21T02:53:07.360Z,8.39
2023-02-21T02:55:42.717Z,8.36
2023-02-21T02:58:13.087Z,8.38
2023-02-21T03:00:46.796Z,8.29
2023-02-21T03:03:39.433Z,8.47
2023-02-21T03:06:22.497Z,8.49
2023-02-21T03:08:57.276Z,8.35
2023-02-21T03:11:27.759Z,8.35
2023-02-21T03:14:05.631Z,8.32
2023-02-21T03:16:39.618Z,8.20
2023-02-21T03:19:13.169Z,8.11
2023-02-21T03:21:47.841Z,8.02
2023-02-21T03:24:19.464Z,8.02
2023-02-21T03:26:54.765Z,7.96
2023-02-21T03:29:47.228Z,7.99
2023-02-21T03:32:21.567Z,7.97
2023-02-21T03:34:50.794Z,7.98
2023-02-21T03:37:31.864Z,7.92
2023-02-21T03:40:01.591Z,7.94
2023-02-21T03:42:33.246Z,7.97
2023-02-21T03:45:02.989Z,7.88
2023-02-21T03:47:32.849Z,7.98
2023-02-21T03:50:01.975Z,7.99
2023-02-21T03:52:32.647Z,7.91
2023-02-21T03:55:02.447Z,7.87
2023-02-21T03:57:32.469Z,7.82
2023-02-21T04:00:02.356Z,7.81
2023-02-21T04:02:33.252Z,7.85
2023-02-21T04:05:02.462Z,7.81
2023-02-21T04:07:33.328Z,7.76
2023-02-21T04:10:02.528Z,7.77
2023-02-21T04:12:39.945Z,7.79
2023-02-21T04:15:11.384Z,7.69
2023-02-21T04:17:40.537Z,7.73
2023-02-21T04:20:12.012Z,7.71
2023-02-21T04:22:54.535Z,7.72
2023-02-21T04:25:31.046Z,7.79
2023-02-21T04:28:06.025Z,7.79
2023-02-21T04:30:35.184Z,7.74
2023-02-21T04:33:05.763Z,7.64
2023-02-21T04:35:35.372Z,7.66
2023-02-21T04:38:11.632Z,7.66
2023-02-21T04:40:40.717Z,7.67
2023-02-21T04:43:09.827Z,7.62
2023-02-21T04:45:40.027Z,7.60
2023-02-21T04:48:09.521Z,7.59
2023-02-21T04:50:38.554Z,7.53
2023-02-21T04:53:07.645Z,7.53
2023-02-21T04:55:38.087Z,7.49
2023-02-21T04:58:07.242Z,7.45
2023-02-21T05:00:36.284Z,7.46
2023-02-21T05:03:05.434Z,7.43
2023-02-21T05:05:34.485Z,7.46
2023-02-21T05:08:03.539Z,7.44
2023-02-21T05:10:44.868Z,7.38
2023-02-21T05:13:16.050Z,7.40
2023-02-21T05:15:45.255Z,7.41
2023-02-21T05:18:14.321Z,7.39
2023-02-21T05:20:43.485Z,7.39
2023-02-21T05:23:14.086Z,7.35
2023-02-21T05:25:43.772Z,7.39
2023-02-21T05:28:12.871Z,7.33
2023-02-21T05:30:43.582Z,7.41
2023-02-21T05:33:13.401Z,7.31
2023-02-21T05:35:43.089Z,7.27
2023-02-21T05:38:12.292Z,7.39
2023-02-21T05:40:41.411Z,7.35
2023-02-21T05:43:10.488Z,7.34
2023-02-21T05:45:39.676Z,7.36
2023-02-21T05:48:10.408Z,7.34
2023-02-21T05:50:39.828Z,7.28
2023-02-21T05:53:10.416Z,7.37
2023-02-21T05:55:40.119Z,7.37
2023-02-21T05:58:09.431Z,7.27
2023-02-21T06:00:38.622Z,7.34
2023-02-21T06:03:09.680Z,7.36
2023-02-21T06:05:38.760Z,7.26
2023-02-21T06:08:10.738Z,7.32
2023-02-21T06:10:40.930Z,7.32
2023-02-21T06:13:10.000Z,7.21
2023-02-21T06:15:39.107Z,7.25
2023-02-21T06:18:09.553Z,7.27
2023-02-21T06:20:38.784Z,7.27
2023-02-21T06:23:07.901Z,7.17
2023-02-21T06:25:37.000Z,7.24
2023-02-21T06:28:06.333Z,7.16
2023-02-21T06:30:35.585Z,7.18
2023-02-21T06:33:05.079Z,7.22
2023-02-21T06:35:35.605Z,7.13
2023-02-21T06:38:04.659Z,7.09
2023-02-21T06:40:33.726Z,7.07
2023-02-21T06:43:02.810Z,7.13
2023-02-21T06:45:31.942Z,7.07
2023-02-21T06:48:00.996Z,7.10
2023-02-21T06:50:30.215Z,7.08
2023-02-21T06:53:00.943Z,7.12
2023-02-21T06:55:30.015Z,7.06
2023-02-21T06:57:59.084Z,7.04
2023-02-21T07:00:28.212Z,7.15
2023-02-21T07:02:57.246Z,7.10
2023-02-21T07:05:26.313Z,7.10
2023-02-21T07:07:55.514Z,7.06
2023-02-21T07:10:26.021Z,7.13
2023-02-21T07:12:55.390Z,7.06
2023-02-21T07:15:24.603Z,7.10
2023-02-21T07:17:53.862Z,7.15
2023-02-21T07:20:22.977Z,7.14
2023-02-21T07:22:52.115Z,7.08
2023-02-21T07:25:23.256Z,7.15
2023-02-21T07:27:53.844Z,7.21
2023-02-21T07:30:23.196Z,7.24
2023-02-21T07:35:21.854Z,7.26
2023-02-21T07:37:51.044Z,7.38
2023-02-21T07:40:20.246Z,7.23
2023-02-21T07:42:49.434Z,7.28
2023-02-21T07:45:20.546Z,7.29
2023-02-21T07:47:51.008Z,7.26
2023-02-21T07:50:20.402Z,7.24
2023-02-21T07:52:49.533Z,7.38
2023-02-21T07:55:18.844Z,7.40
2023-02-21T07:57:48.067Z,7.37
2023-02-21T08:00:19.223Z,7.59
2023-02-21T08:02:49.746Z,7.78
2023-02-21T08:05:20.102Z,7.83
2023-02-21T08:07:49.388Z,7.89
2023-02-21T08:10:22.492Z,7.77
2023-02-21T08:12:51.819Z,7.92
2023-02-21T08:15:22.914Z,8.09
2023-02-21T08:17:52.812Z,8.03
2023-02-21T08:20:21.907Z,8.22
2023-02-21T08:22:51.077Z,8.32
2023-02-21T08:25:20.318Z,8.60
2023-02-21T08:27:53.544Z,8.40
2023-02-21T08:30:25.281Z,8.29
2023-02-21T08:32:54.696Z,8.27
2023-02-21T08:35:23.760Z,8.01
2023-02-21T08:37:56.698Z,8.13
2023-02-21T08:40:26.402Z,8.43
2023-02-21T08:42:57.509Z,8.65
2023-02-21T08:45:29.995Z,8.73
2023-02-21T08:48:00.037Z,8.74
2023-02-21T08:50:30.109Z,8.74
2023-02-21T08:52:59.223Z,8.66
2023-02-21T08:55:28.287Z,8.57
2023-02-21T08:57:57.527Z,8.72
2023-02-21T09:00:28.728Z,8.83
2023-02-21T09:02:59.751Z,8.71
2023-02-21T09:05:31.382Z,8.98
2023-02-21T09:08:05.192Z,8.82
2023-02-21T09:10:34.998Z,8.79
2023-02-21T09:13:06.315Z,8.76
2023-02-21T09:15:36.718Z,8.79
2023-02-21T09:18:06.609Z,8.92
2023-02-21T09:20:37.671Z,8.74
2023-02-21T09:23:06.754Z,8.67
2023-02-21T09:25:35.880Z,8.88
2023-02-21T09:28:05.129Z,8.97
2023-02-21T09:30:34.252Z,8.97
2023-02-21T09:33:04.863Z,8.99
2023-02-21T09:35:33.928Z,8.95
2023-02-21T09:38:03.547Z,8.76
2023-02-21T09:40:38.130Z,9.18
2023-02-21T09:43:12.425Z,8.90
2023-02-21T09:45:42.346Z,9.03
2023-02-21T09:48:15.129Z,9.20
2023-02-21T09:50:50.165Z,9.31
2023-02-21T09:53:22.696Z,9.51
2023-02-21T09:55:55.550Z,9.29
2023-02-21T09:58:25.444Z,9.43
2023-02-21T10:00:57.990Z,9.32
2023-02-21T10:03:49.382Z,9.25
2023-02-21T10:06:32.485Z,9.56
2023-02-21T10:09:08.034Z,9.46
2023-02-21T10:11:45.697Z,9.60
2023-02-21T10:14:29.092Z,9.42
2023-02-21T10:17:05.957Z,9.46
2023-02-21T10:19:40.050Z,9.72
2023-02-21T10:22:19.422Z,10.03
2023-02-21T10:24:50.226Z,9.93
2023-02-21T10:27:22.397Z,10.39
2023-02-21T10:29:56.047Z,10.21
2023-02-21T10:32:26.317Z,10.28
2023-02-21T10:34:58.652Z,10.11
2023-02-21T10:37:39.057Z,10.50
2023-02-21T10:40:25.731Z,10.33
2023-02-21T10:43:01.087Z,10.76
2023-02-21T10:45:36.576Z,10.74
2023-02-21T10:48:07.627Z,10.18
2023-02-21T10:50:50.661Z,10.23
2023-02-21T10:53:29.551Z,9.87
2023-02-21T10:56:28.091Z,9.98
2023-02-21T10:59:05.384Z,9.70
2023-02-21T11:01:39.591Z,10.00
2023-02-21T11:04:25.471Z,10.21
2023-02-21T11:06:58.369Z,10.27
2023-02-21T11:09:49.517Z,10.42
2023-02-21T11:12:22.409Z,10.19
2023-02-21T11:15:15.682Z,10.29
2023-02-21T11:17:46.974Z,9.98
2023-02-21T11:20:20.874Z,10.36
2023-02-21T11:22:52.717Z,10.40
2023-02-21T11:25:28.275Z,10.31
2023-02-21T11:28:04.566Z,10.48
2023-02-21T11:30:36.772Z,10.33
2023-02-21T11:33:07.530Z,10.62
2023-02-21T11:35:40.736Z,10.64
2023-02-21T11:38:32.020Z,10.46
2023-02-21T11:41:03.042Z,10.33
2023-02-21T11:43:33.643Z,10.22
2023-02-21T11:46:16.231Z,10.30
2023-02-21T11:48:56.098Z,10.24
2023-02-21T11:51:36.029Z,10.41
2023-02-21T11:54:07.682Z,10.37
2023-02-21T11:56:47.756Z,10.47
2023-02-21T11:59:36.680Z,10.51
2023-02-21T12:02:44.124Z,10.80
2023-02-21T12:05:36.068Z,11.05
2023-02-21T12:08:24.110Z,11.23
2023-02-21T12:11:04.950Z,10.86
2023-02-21T12:13:44.823Z,10.91
2023-02-21T12:16:25.122Z,11.15
2023-02-21T12:19:07.554Z,10.92
2023-02-21T12:22:11.034Z,11.03
2023-02-21T12:24:56.552Z,10.62
2023-02-21T12:27:34.967Z,10.48
2023-02-21T12:30:17.966Z,10.35
2023-02-21T12:32:59.668Z,10.40
2023-02-21T12:35:53.461Z,10.26
2023-02-21T12:38:31.435Z,10.20
2023-02-21T12:41:10.450Z,10.25
2023-02-21T12:43:50.873Z,10.32
2023-02-21T12:46:28.573Z,10.33
2023-02-21T12:49:04.542Z,10.51
2023-02-21T12:51:40.041Z,10.28
2023-02-21T12:54:15.411Z,10.47
2023-02-21T12:56:50.793Z,10.63
2023-02-21T12:59:28.287Z,10.59
2023-02-21T13:02:01.679Z,10.07
2023-02-21T13:04:42.323Z,10.12
2023-02-21T13:07:25.455Z,10.32
2023-02-21T13:10:03.522Z,10.40
2023-02-21T13:12:38.839Z,10.20
2023-02-21T13:15:20.435Z,10.35
2023-02-21T13:18:00.774Z,10.44
2023-02-21T13:20:35.439Z,10.57
2023-02-21T13:23:59.540Z,10.44
2023-02-21T13:27:20.348Z,10.38
2023-02-21T13:29:50.814Z,10.28
2023-02-21T13:32:22.191Z,10.49
2023-02-21T13:34:57.131Z,10.42
2023-02-21T13:37:29.783Z,10.48
2023-02-21T13:40:07.527Z,10.18
2023-02-21T13:42:39.575Z,10.27
2023-02-21T13:45:19.079Z,10.84
2023-02-21T13:48:22.758Z,10.85
2023-02-21T13:50:54.140Z,10.92
2023-02-21T13:53:25.740Z,10.90
2023-02-21T13:56:17.806Z,10.39
2023-02-21T13:58:48.155Z,10.70
2023-02-21T14:01:44.713Z,10.61
2023-02-21T14:05:02.212Z,10.42
2023-02-21T14:08:02.868Z,10.64
2023-02-21T14:10:38.101Z,10.86
2023-02-21T14:13:18.408Z,11.12
2023-02-21T14:15:50.339Z,10.66
2023-02-21T14:18:25.759Z,10.69
2023-02-21T14:20:56.978Z,10.14
2023-02-21T14:23:38.099Z,9.93
2023-02-21T14:26:07.992Z,10.23
2023-02-21T14:29:02.990Z,9.98
2023-02-21T14:31:49.927Z,9.76
2023-02-21T14:34:25.420Z,9.80
2023-02-21T14:36:59.129Z,9.98
2023-02-21T14:39:35.319Z,9.78
2023-02-21T14:42:27.325Z,9.81
2023-02-21T14:45:21.292Z,9.50
2023-02-21T14:48:02.674Z,9.61
2023-02-21T14:50:40.033Z,9.54
2023-02-21T14:53:34.636Z,9.90
2023-02-21T14:56:41.240Z,9.76
2023-02-21T14:59:44.148Z,9.59
2023-02-21T15:02:24.702Z,9.77
2023-02-21T15:05:01.426Z,9.89
2023-02-21T15:07:36.158Z,9.72
2023-02-21T15:10:15.245Z,9.54
2023-02-21T15:12:49.019Z,9.68
2023-02-21T15:15:23.072Z,9.59
2023-02-21T15:18:03.151Z,9.53
2023-02-21T15:20:33.783Z,9.52
2023-02-21T15:23:12.220Z,9.70
2023-02-21T15:25:41.394Z,9.40
2023-02-21T15:28:22.973Z,9.28
2023-02-21T15:31:01.940Z,9.21
2023-02-21T15:33:34.945Z,9.33
2023-02-21T15:36:07.057Z,9.28
2023-02-21T15:38:40.682Z,9.47
2023-02-21T15:41:15.767Z,9.26
2023-02-21T15:43:51.898Z,9.13
2023-02-21T15:46:25.453Z,9.13
2023-02-21T15:48:57.781Z,9.13
2023-02-21T15:51:27.390Z,9.11
2023-02-21T15:54:25.286Z,9.16
2023-02-21T15:57:24.495Z,9.00
2023-02-21T16:00:20.177Z,8.95
2023-02-21T16:02:49.338Z,9.06
2023-02-21T16:05:26.491Z,8.83
2023-02-21T16:08:01.262Z,8.66
2023-02-21T16:10:30.463Z,8.70
2023-02-21T16:13:01.364Z,8.72
2023-02-21T16:15:35.136Z,8.84
2023-02-21T16:18:08.009Z,8.66
2023-02-21T16:20:39.044Z,8.62
2023-02-21T16:23:24.344Z,8.61
2023-02-21T16:25:59.196Z,8.58
2023-02-21T16:28:28.933Z,8.72
2023-02-21T16:31:02.544Z,8.51
2023-02-21T16:33:31.976Z,8.51
2023-02-21T16:36:05.561Z,8.45
2023-02-21T16:38:34.869Z,8.53
2023-02-21T16:41:03.927Z,8.51
2023-02-21T16:43:32.966Z,8.40
2023-02-21T16:46:03.491Z,8.43
2023-02-21T16:48:33.870Z,8.50
2023-02-21T16:51:05.034Z,8.39
2023-02-21T16:53:34.124Z,8.38
2023-02-21T16:56:03.814Z,8.49
2023-02-21T16:58:35.880Z,8.45
2023-02-21T17:01:09.374Z,8.38
2023-02-21T17:03:38.501Z,8.41
2023-02-21T17:06:07.917Z,8.38
2023-02-21T17:08:37.023Z,8.37
2023-02-21T17:11:06.259Z,8.28
2023-02-21T17:13:35.296Z,8.28
2023-02-21T17:16:06.630Z,8.24
2023-02-21T17:18:35.747Z,8.22
2023-02-21T17:21:05.392Z,8.11
2023-02-21T17:23:34.500Z,8.20
2023-02-21T17:26:03.661Z,8.28
2023-02-21T17:28:34.445Z,8.19
2023-02-21T17:31:05.034Z,8.20
2023-02-21T17:33:35.461Z,8.19
2023-02-21T17:36:04.744Z,8.21
2023-02-21T17:38:34.970Z,8.12
2023-02-21T17:41:04.998Z,8.16
2023-02-21T17:43:34.293Z,8.19
2023-02-21T17:46:05.129Z,8.32
2023-02-21T17:48:34.385Z,8.16
2023-02-21T17:51:03.861Z,8.27
2023-02-21T17:53:32.970Z,8.26
2023-02-21T17:56:02.135Z,8.28
2023-02-21T17:58:31.626Z,8.27
2023-02-21T18:01:01.378Z,8.18
2023-02-21T18:03:31.818Z,8.16
2023-02-21T18:06:01.183Z,8.19
2023-02-21T18:08:30.254Z,8.21
2023-02-21T18:10:59.290Z,8.21
2023-02-21T18:13:28.370Z,8.29
2023-02-21T18:15:57.646Z,8.20
2023-02-21T18:18:26.707Z,8.16
2023-02-21T18:20:57.896Z,8.09
2023-02-21T18:23:27.162Z,8.16
2023-02-21T18:25:56.497Z,8.19
2023-02-21T18:28:26.819Z,8.19
2023-02-21T18:30:56.264Z,8.22
2023-02-21T18:33:27.658Z,8.17
2023-02-21T18:35:59.396Z,8.20
2023-02-21T18:38:29.144Z,8.21
2023-02-21T18:41:01.703Z,8.06
2023-02-21T18:43:31.732Z,8.01
2023-02-21T18:46:00.957Z,8.10
2023-02-21T18:48:30.208Z,8.09
2023-02-21T18:51:00.703Z,8.07
2023-02-21T18:53:29.956Z,8.09
2023-02-21T18:55:59.038Z,8.16
2023-02-21T18:58:28.173Z,7.98
2023-02-21T19:00:57.386Z,8.03
2023-02-21T19:03:26.484Z,8.05
2023-02-21T19:05:55.600Z,8.03
2023-02-21T19:08:26.309Z,8.01
2023-02-21T19:10:55.391Z,8.11
2023-02-21T19:13:24.959Z,8.10
2023-02-21T19:15:53.972Z,8.06
2023-02-21T19:18:23.068Z,8.06
2023-02-21T19:20:52.153Z,8.10
2023-02-21T19:23:21.330Z,8.05
2023-02-21T19:25:51.813Z,8.06
2023-02-21T19:28:22.886Z,8.11
2023-02-21T19:30:52.283Z,7.95
2023-02-21T19:33:22.975Z,8.00
2023-02-21T19:35:52.680Z,7.94
2023-02-21T19:38:21.783Z,8.00
2023-02-21T19:40:52.205Z,8.09
2023-02-21T19:43:21.316Z,8.07
2023-02-21T19:45:52.102Z,8.08
2023-02-21T19:48:22.761Z,8.04
2023-02-21T19:50:51.957Z,7.98
2023-02-21T19:53:21.250Z,8.04
2023-02-21T19:55:51.712Z,8.02
2023-02-21T19:58:20.811Z,8.04
2023-02-21T20:00:50.614Z,8.04
2023-02-21T20:03:19.859Z,7.99
2023-02-21T20:05:49.072Z,8.10
2023-02-21T20:08:18.139Z,8.05
2023-02-21T20:10:47.185Z,7.95
2023-02-21T20:13:17.636Z,8.03
2023-02-21T20:15:47.375Z,8.09
2023-02-21T20:18:17.688Z,8.06
2023-02-21T20:20:47.306Z,8.11
2023-02-21T20:23:18.047Z,8.11
2023-02-21T20:25:47.361Z,8.08
2023-02-21T20:28:18.232Z,8.09
2023-02-21T20:30:50.401Z,8.06
2023-02-21T20:33:20.648Z,8.02
2023-02-21T20:35:50.905Z,8.08
2023-02-21T20:38:19.959Z,8.01
2023-02-21T20:40:49.435Z,7.88
2023-02-21T20:43:19.881Z,7.97
2023-02-21T20:45:49.026Z,7.94
2023-02-21T20:48:27.094Z,7.98
2023-02-21T20:50:56.152Z,7.93
2023-02-21T20:53:26.235Z,7.91
2023-02-21T20:55:55.746Z,7.94
2023-02-21T20:58:27.165Z,7.85
2023-02-21T21:00:56.264Z,7.85
2023-02-21T21:03:29.332Z,7.86
2023-02-21T21:05:58.514Z,7.71
2023-02-21T21:08:27.592Z,7.82
2023-02-21T21:10:57.359Z,7.74
2023-02-21T21:13:27.843Z,7.75
2023-02-21T21:15:57.073Z,7.78
2023-02-21T21:18:27.043Z,7.80
2023-02-21T21:20:56.098Z,7.77
2023-02-21T21:23:25.929Z,7.61
2023-02-21T21:25:55.021Z,7.78
2023-02-21T21:28:24.190Z,7.79
2023-02-21T21:30:54.692Z,7.83
2023-02-21T21:33:23.983Z,7.77
2023-02-21T21:35:58.358Z,7.76
2023-02-21T21:38:28.396Z,7.77
2023-02-21T21:40:57.837Z,7.74
2023-02-21T21:43:28.361Z,7.80
2023-02-21T21:45:58.901Z,7.75
2023-02-21T21:48:28.001Z,7.70
2023-02-21T21:50:57.522Z,7.79
2023-02-21T21:53:26.769Z,7.79
2023-02-21T21:55:56.649Z,7.79
2023-02-21T21:58:26.669Z,7.73
2023-02-21T22:00:55.900Z,7.75
2023-02-21T22:03:27.980Z,7.71
2023-02-21T22:06:00.365Z,7.77
2023-02-21T22:08:31.172Z,7.70
2023-02-21T22:11:00.925Z,7.69
2023-02-21T22:13:32.520Z,7.74
2023-02-21T22:16:01.668Z,7.70
2023-02-21T22:18:32.113Z,7.69
2023-02-21T22:21:01.381Z,7.78
2023-02-21T22:23:30.376Z,7.62
2023-02-21T22:25:59.469Z,7.60
2023-02-21T22:28:28.525Z,7.55
2023-02-21T22:30:58.148Z,7.66
2023-02-21T22:33:27.202Z,7.68
2023-02-21T22:35:58.084Z,7.72
2023-02-21T22:38:27.207Z,7.77
2023-02-21T22:40:59.862Z,7.66
2023-02-21T22:43:29.066Z,7.60
2023-02-21T22:45:58.561Z,7.70
2023-02-21T22:48:27.569Z,7.45
2023-02-21T22:50:58.006Z,7.46
2023-02-21T22:53:27.621Z,7.58
2023-02-21T22:55:58.878Z,7.50
2023-02-21T22:58:27.997Z,7.53
2023-02-21T23:00:59.997Z,7.57
2023-02-21T23:03:31.935Z,7.46
2023-02-21T23:06:02.665Z,7.54
2023-02-21T23:08:34.546Z,7.51
2023-02-21T23:11:04.450Z,7.52
2023-02-21T23:13:33.553Z,7.46
2023-02-21T23:16:02.661Z,7.46
2023-02-21T23:18:31.950Z,7.52
2023-02-21T23:21:04.759Z,7.56
2023-02-21T23:23:33.834Z,7.50
2023-02-21T23:26:07.541Z,7.53
2023-02-21T23:28:36.657Z,7.61
2023-02-21T23:31:05.991Z,7.51
2023-02-21T23:33:35.062Z,7.52
2023-02-21T23:36:06.159Z,7.49
2023-02-21T23:38:38.333Z,7.56
2023-02-21T23:41:08.899Z,7.63
2023-02-21T23:43:39.850Z,7.54
2023-02-21T23:46:10.309Z,7.53
2023-02-21T23:48:39.391Z,7.46
2023-02-21T23:51:10.106Z,7.45
2023-02-21T23:53:39.234Z,7.52
2023-02-21T23:56:12.897Z,7.55
2023-02-21T23:58:45.467Z,7.48
